Time;durP1;ratioP1;P1;durP2;ratioP2;P2;SDS_P1;SDS_P2;PMS_P1;PMS_P2;Temp;Humidity;BMP_temperature;BMP_pressure;BME280_temperature;BME280_humidity;BME280_pressure;Samples;Min_cycle;Max_cycle;Signal;HPM_P1;HPM_P2
2022/01/11 00:01:18;;;;;;;10.43;6.38;;;18.20;61.90;;;;;;5034349;28;20017;-76
2022/01/11 00:03:44;;;;;;;10.82;6.78;;;18.30;62.00;;;;;;5034371;28;20100;-76
2022/01/11 00:06:31;;;;;;;11.32;6.88;;;18.30;62.00;;;;;;5034378;28;20061;-76
2022/01/11 00:09:01;;;;;;;11.05;6.85;;;18.20;62.00;;;;;;5034520;28;20033;-76
2022/01/11 00:11:27;;;;;;;10.75;6.55;;;18.20;62.00;;;;;;5044215;28;20025;-76
2022/01/11 00:13:53;;;;;;;9.38;6.68;;;18.20;62.00;;;;;;5054273;28;20021;-76
2022/01/11 00:16:18;;;;;;;8.95;6.40;;;18.20;62.00;;;;;;5055018;28;20036;-76
2022/01/11 00:18:44;;;;;;;9.40;6.68;;;18.20;62.10;;;;;;5055306;28;20024;-76
2022/01/11 00:21:10;;;;;;;9.35;5.97;;;18.20;62.10;;;;;;5054027;28;20528;-76
2022/01/11 00:26:01;;;;;;;8.35;6.22;;;18.20;62.10;;;;;;5037118;28;20079;-77
2022/01/11 00:28:27;;;;;;;9.65;5.80;;;18.20;62.10;;;;;;5037190;28;20119;-77
2022/01/11 00:30:53;;;;;;;9.48;6.00;;;18.20;62.10;;;;;;5055065;28;20036;-77
2022/01/11 00:33:34;;;;;;;8.95;5.85;;;18.20;62.10;;;;;;5053674;28;20100;-78
2022/01/11 00:36:02;;;;;;;7.57;5.03;;;18.20;62.20;;;;;;5053889;28;20082;-77
2022/01/11 00:38:46;;;;;;;9.27;5.43;;;18.20;62.20;;;;;;5053699;28;20021;-77
2022/01/11 00:41:12;;;;;;;7.80;5.88;;;18.20;62.20;;;;;;5053840;28;20017;-77
2022/01/11 00:43:39;;;;;;;7.53;5.40;;;18.20;62.30;;;;;;5054747;28;20017;-77
2022/01/11 00:46:05;;;;;;;7.80;5.55;;;18.10;62.10;;;;;;5053634;28;20017;-77
2022/01/11 00:48:30;;;;;;;7.80;5.30;;;18.20;62.30;;;;;;5054778;28;20078;-77
2022/01/11 00:50:56;;;;;;;7.90;5.70;;;18.20;62.20;;;;;;5053625;28;20033;-77
2022/01/11 00:53:23;;;;;;;9.20;5.82;;;18.20;62.60;;;;;;5054009;28;20391;-77
2022/01/11 00:55:49;;;;;;;7.70;5.63;;;18.20;62.20;;;;;;5046276;28;20057;-77
2022/01/11 00:58:15;;;;;;;8.18;5.18;;;18.10;62.20;;;;;;5033382;28;20491;-77
2022/01/11 01:00:41;;;;;;;8.10;6.10;;;18.20;62.40;;;;;;5033414;28;20037;-77
2022/01/11 01:03:06;;;;;;;9.10;5.90;;;18.10;62.20;;;;;;5034602;28;20047;-78
2022/01/11 01:05:32;;;;;;;7.53;5.38;;;18.20;62.30;;;;;;5033228;28;20083;-77
2022/01/11 01:07:59;;;;;;;7.57;4.93;;;18.10;62.30;;;;;;5033044;28;20456;-77
2022/01/11 01:10:36;;;;;;;7.80;5.57;;;18.20;62.30;;;;;;5034766;28;20025;-77
2022/01/11 01:13:07;;;;;;;6.80;5.10;;;18.10;62.40;;;;;;5053306;28;20559;-77
2022/01/11 01:15:36;;;;;;;7.40;5.22;;;18.10;62.30;;;;;;5052860;28;20021;-76
2022/01/11 01:18:01;;;;;;;5.63;4.97;;;18.10;62.30;;;;;;5052925;28;20013;-76
2022/01/11 01:20:27;;;;;;;7.35;4.65;;;18.10;62.30;;;;;;5036230;28;20031;-76
2022/01/11 01:22:52;;;;;;;6.53;4.57;;;18.10;62.40;;;;;;5052605;28;20025;-76
2022/01/11 01:25:20;;;;;;;7.43;4.55;;;18.10;62.40;;;;;;5052701;28;20029;-76
2022/01/11 01:27:47;;;;;;;7.53;5.35;;;18.10;62.40;;;;;;5052700;28;20503;-76
2022/01/11 01:30:12;;;;;;;5.25;4.60;;;18.10;62.40;;;;;;5036232;28;20105;-76
2022/01/11 01:32:38;;;;;;;7.00;4.88;;;18.10;62.40;;;;;;5053989;28;20104;-76
2022/01/11 01:35:05;;;;;;;7.93;5.10;;;18.10;62.40;;;;;;5036117;28;20543;-76
2022/01/11 01:37:31;;;;;;;6.15;4.35;;;18.10;62.40;;;;;;5052220;28;20020;-76
2022/01/11 01:39:57;;;;;;;7.22;4.60;;;18.10;62.40;;;;;;5019487;28;20102;-76
2022/01/11 01:42:25;;;;;;;6.47;4.78;;;18.10;62.50;;;;;;5035994;28;20475;-76
2022/01/11 01:44:51;;;;;;;6.97;4.35;;;18.10;62.50;;;;;;5036286;28;20029;-76
2022/01/11 01:47:16;;;;;;;6.70;4.63;;;18.10;62.50;;;;;;5052396;28;20024;-76
2022/01/11 01:49:42;;;;;;;5.05;4.50;;;18.00;62.40;;;;;;5053564;28;20509;-76
2022/01/11 01:52:07;;;;;;;7.22;5.10;;;18.00;62.50;;;;;;5035387;28;20548;-76
2022/01/11 01:54:33;;;;;;;6.00;4.50;;;18.10;62.60;;;;;;5052200;28;20430;-76
2022/01/11 01:56:59;;;;;;;6.63;4.38;;;18.00;62.50;;;;;;5018697;28;20542;-76
2022/01/11 01:59:24;;;;;;;5.20;4.13;;;18.00;62.50;;;;;;5032191;28;20033;-77
2022/01/11 02:01:50;;;;;;;6.43;4.32;;;18.00;62.50;;;;;;5032474;28;20097;-77
2022/01/11 02:04:17;;;;;;;6.90;4.70;;;18.00;62.60;;;;;;5033158;28;20052;-77
2022/01/11 02:06:43;;;;;;;5.78;3.95;;;18.00;62.60;;;;;;5031895;28;20105;-77
2022/01/11 02:09:10;;;;;;;6.55;4.70;;;18.00;62.60;;;;;;5033294;28;20081;-77
2022/01/11 02:11:36;;;;;;;6.00;4.25;;;18.00;62.60;;;;;;5043457;28;20064;-77
2022/01/11 02:14:01;;;;;;;6.00;4.40;;;18.00;62.70;;;;;;5051871;28;20060;-77
2022/01/11 02:16:27;;;;;;;5.65;4.50;;;18.00;62.60;;;;;;5035170;28;20017;-77
2022/01/11 02:18:53;;;;;;;5.95;4.00;;;18.00;62.70;;;;;;5051754;28;20399;-77
2022/01/11 02:21:19;;;;;;;5.50;3.97;;;18.00;62.60;;;;;;5050904;28;20017;-77
2022/01/11 02:23:45;;;;;;;6.45;4.20;;;18.00;62.70;;;;;;5018570;28;20036;-77
2022/01/11 02:26:10;;;;;;;7.15;4.60;;;18.00;62.70;;;;;;5035292;28;20449;-77
2022/01/11 02:28:37;;;;;;;4.50;4.00;;;18.00;62.70;;;;;;5051547;28;20029;-77
2022/01/11 02:31:07;;;;;;;5.45;4.25;;;18.00;62.70;;;;;;5051736;28;20009;-77
2022/01/11 02:33:34;;;;;;;6.40;4.00;;;18.00;62.70;;;;;;5035475;28;20091;-77
2022/01/11 02:36:01;;;;;;;5.50;4.10;;;18.00;62.70;;;;;;5051246;28;20493;-77
2022/01/11 02:38:27;;;;;;;5.50;3.80;;;18.00;62.80;;;;;;5051523;28;20055;-78
2022/01/11 02:40:53;;;;;;;4.88;3.90;;;18.00;62.70;;;;;;5051370;28;20068;-77
2022/01/11 02:43:18;;;;;;;5.53;4.20;;;18.00;62.70;;;;;;5051402;28;20104;-77
2022/01/11 02:45:44;;;;;;;6.00;4.03;;;18.00;62.70;;;;;;5051363;28;20097;-77
2022/01/11 02:48:10;;;;;;;3.95;3.53;;;18.00;62.70;;;;;;5051503;28;20406;-77
2022/01/11 02:50:35;;;;;;;4.47;3.58;;;18.00;62.80;;;;;;5052002;28;20028;-76
2022/01/11 02:53:01;;;;;;;5.43;4.03;;;18.00;62.80;;;;;;5052476;28;20025;-76
2022/01/11 02:55:27;;;;;;;7.22;3.88;;;18.00;62.80;;;;;;5046812;28;20067;-76
2022/01/11 02:57:53;;;;;;;5.25;3.63;;;18.00;62.80;;;;;;5031246;28;20475;-76
2022/01/11 03:00:20;;;;;;;4.60;3.65;;;18.00;62.90;;;;;;5031093;28;20022;-76
2022/01/11 03:02:46;;;;;;;5.20;4.03;;;17.90;62.80;;;;;;5031146;28;20032;-76
2022/01/11 03:05:12;;;;;;;6.10;3.65;;;17.90;62.80;;;;;;5030989;28;20022;-76
2022/01/11 03:07:38;;;;;;;4.95;3.88;;;17.90;62.80;;;;;;5031060;28;20022;-76
2022/01/11 03:10:15;;;;;;;4.05;3.28;;;17.90;62.80;;;;;;5031052;28;20022;-76
2022/01/11 03:12:43;;;;;;;4.45;3.72;;;17.90;62.80;;;;;;5051040;28;20029;-75
2022/01/11 03:15:09;;;;;;;4.13;3.30;;;17.90;62.90;;;;;;5052167;28;20017;-76
2022/01/11 03:17:34;;;;;;;4.40;3.65;;;17.90;62.90;;;;;;5050631;28;20442;-75
2022/01/11 03:20:00;;;;;;;4.80;3.53;;;17.90;62.90;;;;;;5051976;28;20056;-75
2022/01/11 03:22:25;;;;;;;4.78;3.40;;;17.90;62.90;;;;;;5051006;28;20055;-76
2022/01/11 03:24:51;;;;;;;3.35;3.03;;;17.90;62.90;;;;;;5052052;28;20497;-76
2022/01/11 03:27:17;;;;;;;4.05;3.22;;;17.90;62.90;;;;;;5050810;28;20095;-76
2022/01/11 03:29:42;;;;;;;3.92;3.30;;;17.90;62.90;;;;;;5034125;28;20017;-76
2022/01/11 03:32:08;;;;;;;3.67;2.80;;;17.90;63.00;;;;;;5052197;28;20025;-76
2022/01/11 03:34:34;;;;;;;4.20;3.25;;;17.90;63.00;;;;;;5036736;28;20028;-76
2022/01/11 03:36:59;;;;;;;4.20;3.22;;;17.90;63.00;;;;;;5055061;28;20399;-76
2022/01/11 03:39:26;;;;;;;4.40;3.47;;;17.90;63.00;;;;;;5056026;28;20021;-76
2022/01/11 03:41:51;;;;;;;5.57;3.50;;;17.90;63.00;;;;;;5054676;28;20021;-76
2022/01/11 03:44:17;;;;;;;3.55;3.00;;;17.90;63.10;;;;;;5054863;28;20439;-76
2022/01/11 03:46:43;;;;;;;4.40;3.30;;;17.90;63.00;;;;;;5054566;28;20079;-77
2022/01/11 03:49:08;;;;;;;3.45;2.90;;;17.80;63.00;;;;;;5054463;28;20102;-77
2022/01/11 03:51:38;;;;;;;3.72;2.70;;;17.90;63.10;;;;;;5037840;28;20110;-77
2022/01/11 03:54:10;;;;;;;4.78;3.22;;;17.90;63.10;;;;;;5054641;28;20068;-77
2022/01/11 03:56:36;;;;;;;;;;;17.90;63.20;;;;;;5041052;28;20026;-77
2022/01/11 03:59:06;;;;;;;3.75;3.22;;;17.80;63.20;;;;;;5035744;28;20269;-77
2022/01/11 04:01:32;;;;;;;5.03;2.90;;;17.80;63.30;;;;;;5017973;28;20021;-77
2022/01/11 04:03:58;;;;;;;3.97;3.10;;;17.80;63.30;;;;;;5034480;28;20080;-77
2022/01/11 04:06:25;;;;;;;3.30;2.97;;;17.80;63.30;;;;;;5034508;28;20025;-77
2022/01/11 04:08:51;;;;;;;3.42;3.05;;;17.80;63.30;;;;;;5035546;28;20021;-77
2022/01/11 04:11:17;;;;;;;2.97;2.67;;;17.80;64.30;;;;;;5044233;28;20388;-77
2022/01/11 04:13:42;;;;;;;3.83;3.22;;;17.80;63.30;;;;;;5054343;28;20029;-77
2022/01/11 04:16:08;;;;;;;3.60;2.90;;;17.80;63.30;;;;;;5037273;28;20096;-76
2022/01/11 04:18:34;;;;;;;3.63;3.10;;;17.80;63.30;;;;;;5053995;28;20490;-76
2022/01/11 04:20:59;;;;;;;3.45;3.15;;;17.80;63.30;;;;;;5054070;28;20078;-77
2022/01/11 04:23:26;;;;;;;4.30;3.03;;;17.80;63.20;;;;;;5054099;28;20060;-77
2022/01/11 04:25:52;;;;;;;2.63;2.40;;;17.80;63.30;;;;;;5037261;28;20025;-76
2022/01/11 04:28:18;;;;;;;3.33;2.97;;;17.80;63.30;;;;;;5052827;28;20071;-76
2022/01/11 04:30:43;;;;;;;3.47;2.78;;;17.80;63.30;;;;;;5053251;28;20403;-77
2022/01/11 04:33:09;;;;;;;3.15;2.78;;;17.80;63.30;;;;;;5036220;28;20380;-76
2022/01/11 04:35:34;;;;;;;3.97;3.08;;;17.80;63.30;;;;;;5053756;28;20502;-76
2022/01/11 04:38:00;;;;;;;5.53;2.80;;;17.80;63.70;;;;;;5036055;28;20025;-76
2022/01/11 04:40:26;;;;;;;4.05;3.22;;;17.80;63.30;;;;;;5052603;28;20075;-77
2022/01/11 04:42:52;;;;;;;3.90;2.70;;;17.80;63.30;;;;;;5053477;28;20025;-76
2022/01/11 04:45:17;;;;;;;2.95;2.50;;;17.80;63.30;;;;;;5052945;28;20035;-76
2022/01/11 04:47:45;;;;;;;4.20;2.55;;;17.80;63.30;;;;;;5053569;28;20087;-76
2022/01/11 04:50:10;;;;;;;4.68;2.65;;;17.70;64.40;;;;;;5036131;28;20075;-76
2022/01/11 04:52:36;;;;;;;3.90;2.78;;;17.80;63.40;;;;;;5035753;28;20243;-76
2022/01/11 04:55:03;;;;;;;3.53;2.75;;;17.70;63.40;;;;;;5034710;28;20033;-76
2022/01/11 04:57:28;;;;;;;2.63;2.42;;;17.70;63.50;;;;;;5016016;28;20021;-76
2022/01/11 04:59:54;;;;;;;3.40;2.70;;;17.80;63.50;;;;;;5033002;28;20155;-77
2022/01/11 05:02:20;;;;;;;3.70;2.42;;;17.80;63.40;;;;;;5032386;28;20022;-77
2022/01/11 05:04:45;;;;;;;3.33;2.80;;;17.80;63.50;;;;;;5031954;28;20040;-76
2022/01/11 05:07:11;;;;;;;3.35;2.83;;;17.80;64.50;;;;;;5032259;28;20025;-77
2022/01/11 05:09:36;;;;;;;3.00;2.70;;;17.80;63.50;;;;;;5033255;28;20048;-77
2022/01/11 05:12:02;;;;;;;2.50;2.30;;;17.80;63.50;;;;;;5047182;28;20415;-77
2022/01/11 05:14:28;;;;;;;2.90;2.40;;;17.70;63.50;;;;;;5051991;28;20043;-77
2022/01/11 05:16:53;;;;;;;3.50;2.45;;;17.80;63.50;;;;;;5035374;28;20110;-77
2022/01/11 05:19:19;;;;;;;2.75;2.42;;;17.70;64.50;;;;;;5051927;28;20025;-77
2022/01/11 05:21:45;;;;;;;2.60;2.40;;;17.80;63.60;;;;;;5051950;28;20075;-77
2022/01/11 05:24:10;;;;;;;3.20;2.50;;;17.70;63.50;;;;;;5052031;28;20507;-77
2022/01/11 05:26:36;;;;;;;2.60;2.40;;;17.70;63.50;;;;;;4975499;28;2193888;-77
2022/01/11 05:29:02;;;;;;;3.30;2.42;;;17.70;63.60;;;;;;5035716;28;20025;-77
2022/01/11 05:31:27;;;;;;;4.03;2.60;;;17.70;63.50;;;;;;5052716;28;20029;-77
2022/01/11 05:33:53;;;;;;;2.38;2.17;;;17.70;63.50;;;;;;5052662;28;20028;-77
2022/01/11 05:36:18;;;;;;;2.33;2.10;;;17.70;63.60;;;;;;5052623;28;20033;-77
2022/01/11 05:38:44;;;;;;;2.95;2.20;;;17.70;63.60;;;;;;5052758;28;20483;-76
2022/01/11 05:41:10;;;;;;;2.55;2.35;;;17.70;63.60;;;;;;5052567;28;20023;-76
2022/01/11 05:43:36;;;;;;;2.45;2.22;;;17.70;63.60;;;;;;5052112;28;20017;-76
2022/01/11 05:46:03;;;;;;;2.67;2.40;;;17.70;63.60;;;;;;5035914;28;20036;-77
2022/01/11 05:48:32;;;;;;;2.35;2.15;;;17.70;63.70;;;;;;5035901;28;20032;-78
2022/01/11 05:50:58;;;;;;;3.08;2.33;;;17.70;63.60;;;;;;5053636;28;20131;-78
2022/01/11 05:53:23;;;;;;;2.25;2.05;;;17.70;63.70;;;;;;5052475;28;20029;-78
2022/01/11 05:55:49;;;;;;;3.08;2.35;;;17.70;63.70;;;;;;5051236;28;20037;-77
2022/01/11 05:58:15;;;;;;;2.92;2.42;;;17.70;63.70;;;;;;5033540;28;20059;-76
2022/01/11 06:00:40;;;;;;;2.30;2.10;;;17.70;63.70;;;;;;5049700;28;20033;-77
2022/01/11 06:03:06;;;;;;;3.17;2.45;;;17.70;63.70;;;;;;5048579;28;20133;-77
2022/01/11 06:05:36;;;;;;;3.00;2.47;;;17.70;63.80;;;;;;5050789;28;20104;-77
2022/01/11 06:08:02;;;;;;;2.17;1.98;;;17.70;63.70;;;;;;5049517;28;20017;-77
2022/01/11 06:10:28;;;;;;;2.70;2.30;;;17.70;63.80;;;;;;5050775;28;20020;-76
2022/01/11 06:12:54;;;;;;;3.28;2.25;;;17.70;63.80;;;;;;5048606;28;20502;-77
2022/01/11 06:15:19;;;;;;;2.38;1.95;;;17.60;63.70;;;;;;5050388;28;20181;-77
2022/01/11 06:17:45;;;;;;;2.30;2.10;;;17.70;63.80;;;;;;5049637;28;20047;-77
2022/01/11 06:20:11;;;;;;;3.25;2.15;;;17.70;63.80;;;;;;5050542;28;20029;-77
2022/01/11 06:22:37;;;;;;;3.13;1.90;;;17.60;63.70;;;;;;5050943;28;20044;-77
2022/01/11 06:25:03;;;;;;;2.83;2.10;;;17.70;63.80;;;;;;5048697;28;20021;-77
2022/01/11 06:27:30;;;;;;;1.77;1.67;;;17.70;63.90;;;;;;5049734;28;20095;-77
2022/01/11 06:29:56;;;;;;;2.25;1.30;;;17.70;63.90;;;;;;5021689;28;20030;-78
2022/01/11 06:32:22;;;;;;;2.20;1.23;;;17.70;63.90;;;;;;5027883;28;20033;-78
2022/01/11 06:34:47;;;;;;;1.45;1.20;;;17.70;63.80;;;;;;5047944;28;20079;-77
2022/01/11 06:37:13;;;;;;;1.10;1.00;;;17.80;63.90;;;;;;5048137;28;20025;-78
2022/01/11 06:39:39;;;;;;;0.93;0.75;;;17.70;63.80;;;;;;5048324;28;20024;-78
2022/01/11 06:42:05;;;;;;;0.80;0.80;;;17.70;63.80;;;;;;5047664;28;20032;-78
2022/01/11 06:44:31;;;;;;;1.20;0.90;;;17.80;63.80;;;;;;5046478;28;20083;-78
2022/01/11 06:46:57;;;;;;;2.13;0.93;;;17.80;63.80;;;;;;5048515;28;20024;-78
2022/01/11 06:49:23;;;;;;;0.82;0.60;;;17.80;63.70;;;;;;5047460;28;20036;-78
2022/01/11 06:51:48;;;;;;;0.60;0.60;;;17.80;63.70;;;;;;5029976;28;20445;-78
2022/01/11 06:54:14;;;;;;;0.70;0.70;;;17.90;64.80;;;;;;5032108;28;20049;-78
2022/01/11 06:56:40;;;;;;;1.25;0.60;;;17.80;63.70;;;;;;5046282;28;20044;-78
2022/01/11 06:59:05;;;;;;;0.70;0.70;;;17.90;63.70;;;;;;5049280;28;20104;-78
2022/01/11 07:01:32;;;;;;;0.60;0.60;;;17.90;64.70;;;;;;5033557;28;20108;-78
2022/01/11 07:03:57;;;;;;;0.82;0.82;;;17.90;63.70;;;;;;5049870;28;20017;-78
2022/01/11 07:06:23;;;;;;;0.90;0.60;;;17.90;63.70;;;;;;5049863;28;20091;-78
2022/01/11 07:08:49;;;;;;;0.77;0.75;;;17.90;63.70;;;;;;5033056;28;20045;-78
2022/01/11 07:11:14;;;;;;;0.50;0.50;;;18.00;63.70;;;;;;5049395;28;20028;-78
2022/01/11 07:13:40;;;;;;;0.82;0.60;;;17.90;63.60;;;;;;5051025;28;20017;-78
2022/01/11 07:16:05;;;;;;;2.05;0.70;;;18.00;63.60;;;;;;5049696;28;20025;-78
2022/01/11 07:18:31;;;;;;;1.25;0.85;;;18.00;63.70;;;;;;5051096;28;20021;-78
2022/01/11 07:20:57;;;;;;;0.80;0.70;;;18.00;63.60;;;;;;5049722;28;20052;-78
2022/01/11 07:23:22;;;;;;;1.35;0.65;;;18.00;63.70;;;;;;5050879;28;20047;-77
2022/01/11 07:25:48;;;;;;;1.20;0.80;;;18.00;63.60;;;;;;5049915;28;20104;-77
2022/01/11 07:28:15;;;;;;;5.78;1.30;;;18.00;63.60;;;;;;5051605;28;20088;-76
2022/01/11 07:30:41;;;;;;;7.63;1.40;;;18.10;63.70;;;;;;5049936;28;20025;-77
2022/01/11 07:33:07;;;;;;;4.57;1.52;;;18.10;63.80;;;;;;5050683;28;20028;-77
2022/01/11 07:35:33;;;;;;;3.65;1.60;;;18.10;63.80;;;;;;5051717;28;20033;-76
2022/01/11 07:37:59;;;;;;;6.57;1.33;;;18.10;63.80;;;;;;5051732;28;20017;-77
2022/01/11 07:40:24;;;;;;;4.35;1.70;;;18.20;63.90;;;;;;5050400;28;20526;-77
2022/01/11 07:42:51;;;;;;;7.63;2.25;;;18.20;64.90;;;;;;5051815;28;20021;-76
2022/01/11 07:45:16;;;;;;;6.97;2.00;;;18.20;64.00;;;;;;5050712;28;20072;-77
2022/01/11 07:47:42;;;;;;;4.47;1.85;;;18.20;63.90;;;;;;5050851;28;20481;-76
2022/01/11 07:50:08;;;;;;;3.55;1.38;;;18.20;63.90;;;;;;5051680;28;20379;-77
2022/01/11 07:52:34;;;;;;;4.72;1.85;;;18.20;63.90;;;;;;5050576;28;20112;-77
2022/01/11 07:55:00;;;;;;;3.90;1.67;;;18.30;64.00;;;;;;5033079;28;20111;-77
2022/01/11 07:57:26;;;;;;;3.72;1.40;;;18.30;64.00;;;;;;5030388;28;20033;-77
2022/01/11 07:59:52;;;;;;;5.30;1.63;;;18.30;64.00;;;;;;5030774;28;20476;-77
2022/01/11 08:02:17;;;;;;;5.57;1.50;;;18.30;64.00;;;;;;5030750;28;20017;-77
2022/01/11 08:04:43;;;;;;;1.90;1.17;;;18.30;64.00;;;;;;5030511;28;20377;-76
2022/01/11 08:07:10;;;;;;;3.45;1.27;;;18.30;64.00;;;;;;5031733;28;20025;-77
2022/01/11 08:09:36;;;;;;;4.10;1.20;;;18.30;64.00;;;;;;5030549;28;20049;-76
2022/01/11 08:12:02;;;;;;;2.67;1.20;;;18.30;64.00;;;;;;5045410;28;20541;-76
2022/01/11 08:14:29;;;;;;;5.43;1.30;;;18.30;64.00;;;;;;5050503;28;20111;-77
2022/01/11 08:16:55;;;;;;;3.03;1.13;;;18.30;64.00;;;;;;5050284;28;20044;-76
2022/01/11 08:19:25;;;;;;;4.35;1.30;;;18.30;64.00;;;;;;5052368;28;20029;-77
2022/01/11 08:21:54;;;;;;;4.50;1.30;;;18.30;64.00;;;;;;5055540;28;20546;-76
2022/01/11 08:24:22;;;;;;;1.48;1.10;;;18.30;64.00;;;;;;5037244;28;20021;-77
2022/01/11 08:26:48;;;;;;;1.27;0.95;;;18.30;64.00;;;;;;5054805;28;20387;-77
2022/01/11 08:29:14;;;;;;;4.22;1.55;;;18.30;63.90;;;;;;5037370;28;20060;-77
2022/01/11 08:31:40;;;;;;;2.60;1.17;;;18.30;64.00;;;;;;5055141;28;20455;-77
2022/01/11 08:34:11;;;;;;;3.65;1.45;;;18.30;63.90;;;;;;5053876;28;20065;-76
2022/01/11 08:36:37;;;;;;;2.15;0.93;;;18.30;63.90;;;;;;5053896;28;20083;-77
2022/01/11 08:39:03;;;;;;;2.05;0.80;;;18.30;63.90;;;;;;5053430;28;20021;-76
2022/01/11 08:41:29;;;;;;;1.90;1.00;;;18.30;63.90;;;;;;5037173;28;20021;-77
2022/01/11 08:43:54;;;;;;;2.60;1.00;;;18.30;63.90;;;;;;5053724;28;20029;-76
2022/01/11 08:46:20;;;;;;;1.58;0.90;;;18.40;63.90;;;;;;5054721;28;20032;-76
2022/01/11 08:48:45;;;;;;;3.95;1.23;;;18.40;65.00;;;;;;5036900;28;20388;-76
2022/01/11 08:51:11;;;;;;;2.35;1.25;;;18.40;63.90;;;;;;5053378;28;20025;-76
2022/01/11 08:53:37;;;;;;;1.17;0.80;;;18.40;63.90;;;;;;5053362;28;20025;-77
2022/01/11 08:56:05;;;;;;;2.95;1.10;;;18.40;63.90;;;;;;5027531;28;20025;-77
2022/01/11 08:58:31;;;;;;;2.15;1.17;;;18.40;63.90;;;;;;5033479;28;20026;-77
2022/01/11 09:00:56;;;;;;;2.30;1.08;;;18.40;63.90;;;;;;5033571;28;20491;-77
2022/01/11 09:03:23;;;;;;;2.13;1.00;;;18.40;63.90;;;;;;5034350;28;20029;-77
2022/01/11 09:05:52;;;;;;;1.92;1.00;;;18.40;63.90;;;;;;5034546;28;20031;-77
2022/01/11 09:08:17;;;;;;;2.75;1.08;;;18.40;63.90;;;;;;5016517;28;20562;-76
2022/01/11 09:10:43;;;;;;;2.97;1.10;;;18.40;63.90;;;;;;5020982;28;20108;-76
2022/01/11 09:13:08;;;;;;;1.98;0.82;;;18.40;63.80;;;;;;5054352;28;20040;-77
2022/01/11 09:15:34;;;;;;;1.25;0.90;;;18.40;63.80;;;;;;5052967;28;20112;-77
2022/01/11 09:18:00;;;;;;;2.42;1.13;;;18.40;63.80;;;;;;5036452;28;20067;-76
2022/01/11 09:20:26;;;;;;;1.40;0.75;;;18.40;63.80;;;;;;5053120;28;20510;-77
2022/01/11 09:22:51;;;;;;;1.63;0.95;;;18.40;63.80;;;;;;5036175;28;20537;-76
2022/01/11 09:25:17;;;;;;;1.20;0.80;;;18.40;63.80;;;;;;5036219;28;20019;-77
2022/01/11 09:27:43;;;;;;;1.63;0.90;;;18.40;63.70;;;;;;5052810;28;20124;-77
2022/01/11 09:30:10;;;;;;;2.10;0.85;;;18.50;63.80;;;;;;5052211;28;20021;-77
2022/01/11 09:32:36;;;;;;;1.33;0.88;;;18.40;63.70;;;;;;5035508;28;20557;-76
2022/01/11 09:35:03;;;;;;;1.33;0.70;;;18.40;63.80;;;;;;5035854;28;20021;-76
2022/01/11 09:37:29;;;;;;;1.00;0.60;;;18.40;63.70;;;;;;5035917;28;20126;-76
2022/01/11 09:39:54;;;;;;;1.70;0.90;;;18.40;63.70;;;;;;5052616;28;20096;-76
2022/01/11 09:42:20;;;;;;;1.15;0.68;;;18.40;63.70;;;;;;5035974;28;20399;-77
2022/01/11 09:44:47;;;;;;;1.27;0.80;;;18.40;63.70;;;;;;5052645;28;20092;-77
2022/01/11 09:47:13;;;;;;;2.13;1.00;;;18.40;63.70;;;;;;5052522;28;20047;-76
2022/01/11 09:49:39;;;;;;;1.25;0.70;;;18.40;63.70;;;;;;5035629;28;20492;-76
2022/01/11 09:52:07;;;;;;;1.38;0.75;;;18.40;63.70;;;;;;5035873;28;20033;-77
2022/01/11 09:54:34;;;;;;;2.42;0.68;;;18.40;63.70;;;;;;5052322;28;20104;-76
2022/01/11 09:57:00;;;;;;;2.10;0.57;;;18.40;63.70;;;;;;5035205;28;20029;-76
2022/01/11 09:59:25;;;;;;;2.40;0.88;;;18.50;63.70;;;;;;5032145;28;20022;-77
2022/01/11 10:01:51;;;;;;;1.63;0.80;;;18.50;63.70;;;;;;5033522;28;20048;-76
2022/01/11 10:04:18;;;;;;;1.67;0.90;;;18.40;63.60;;;;;;5031735;28;20041;-77
2022/01/11 10:06:50;;;;;;;2.45;0.80;;;18.50;63.70;;;;;;5032194;28;20171;-76
2022/01/11 10:09:18;;;;;;;1.15;0.77;;;18.50;63.60;;;;;;5015570;28;20090;-77
2022/01/11 10:11:51;;;;;;;0.68;0.57;;;18.40;63.60;;;;;;5044821;28;20083;-77
2022/01/11 10:14:32;;;;;;;1.83;0.70;;;18.50;63.60;;;;;;5035329;28;20025;-77
2022/01/11 10:17:18;;;;;;;2.20;1.13;;;18.50;63.70;;;;;;5037284;28;20111;-77
2022/01/11 10:19:45;;;;;;;1.42;0.98;;;18.50;63.50;;;;;;5052888;28;20031;-77
2022/01/11 10:22:19;;;;;;;0.73;0.73;;;18.50;63.70;;;;;;5035303;28;20025;-77
2022/01/11 10:24:49;;;;;;;1.90;0.80;;;18.50;63.60;;;;;;5053015;28;20021;-77
2022/01/11 10:27:23;;;;;;;0.82;0.60;;;18.50;63.60;;;;;;5034712;28;20487;-77
2022/01/11 10:30:08;;;;;;;0.60;0.50;;;18.50;63.60;;;;;;5051852;28;20440;-77
2022/01/11 10:32:36;;;;;;;1.45;0.80;;;18.40;63.50;;;;;;5052821;28;20021;-77
2022/01/11 10:35:11;;;;;;;0.88;0.73;;;18.50;63.60;;;;;;5034947;28;20021;-77
2022/01/11 10:37:41;;;;;;;1.27;0.73;;;18.50;63.60;;;;;;5051586;28;20021;-77
2022/01/11 10:40:07;;;;;;;0.93;0.50;;;18.50;63.60;;;;;;5051485;28;20051;-77
2022/01/11 10:42:34;;;;;;;1.13;0.50;;;18.40;63.50;;;;;;5052226;28;20108;-77
2022/01/11 10:45:01;;;;;;;2.42;0.70;;;18.50;63.50;;;;;;5051472;28;20017;-77
2022/01/11 10:47:33;;;;;;;1.92;0.60;;;18.50;64.60;;;;;;5051244;28;20029;-77
2022/01/11 10:50:14;;;;;;;2.13;0.80;;;18.50;63.50;;;;;;5051520;28;20095;-77
2022/01/11 10:52:40;;;;;;;1.55;0.70;;;18.50;63.50;;;;;;5035261;28;20053;-77
2022/01/11 10:55:07;;;;;;;1.67;0.75;;;18.40;63.50;;;;;;5049893;28;20096;-77
2022/01/11 10:57:37;;;;;;;0.50;0.50;;;18.50;63.50;;;;;;5032233;28;20112;-77
2022/01/11 11:00:07;;;;;;;0.65;0.50;;;18.50;63.50;;;;;;5015031;28;20025;-77
2022/01/11 11:02:33;;;;;;;2.30;0.77;;;18.50;64.50;;;;;;5031921;28;20030;-77
2022/01/11 11:05:00;;;;;;;0.88;0.70;;;18.50;63.50;;;;;;5031205;28;20071;-77
2022/01/11 11:07:26;;;;;;;1.30;0.77;;;18.50;63.50;;;;;;5031004;28;20033;-77
2022/01/11 11:09:52;;;;;;;0.50;0.50;;;18.50;63.40;;;;;;5031239;28;20097;-77
2022/01/11 11:12:22;;;;;;;1.75;0.73;;;18.50;63.40;;;;;;5048151;28;20052;-77
2022/01/11 11:14:54;;;;;;;1.05;0.70;;;18.50;63.40;;;;;;5050975;28;20461;-77
2022/01/11 11:17:33;;;;;;;0.50;0.50;;;18.50;63.30;;;;;;5050565;28;20025;-77
2022/01/11 11:20:03;;;;;;;0.75;0.40;;;18.50;63.30;;;;;;5034978;28;20021;-77
2022/01/11 11:22:29;;;;;;;0.38;0.30;;;18.50;63.40;;;;;;5050966;28;20017;-77
2022/01/11 11:24:56;;;;;;;1.20;0.80;;;18.50;63.30;;;;;;5018021;28;20025;-77
2022/01/11 11:27:23;;;;;;;1.17;0.70;;;18.50;63.40;;;;;;5017819;28;20569;-77
2022/01/11 11:29:49;;;;;;;1.25;0.60;;;18.50;63.30;;;;;;5050998;28;20062;-77
2022/01/11 11:32:19;;;;;;;1.27;0.60;;;18.50;63.30;;;;;;5051562;28;20070;-77
2022/01/11 11:34:48;;;;;;;1.75;0.70;;;18.50;63.20;;;;;;5050925;28;20032;-77
2022/01/11 11:37:16;;;;;;;0.43;0.43;;;18.50;63.30;;;;;;5034693;28;20033;-77
2022/01/11 11:39:41;;;;;;;0.57;0.57;;;18.50;63.20;;;;;;5034440;28;20020;-77
2022/01/11 11:42:08;;;;;;;1.13;0.60;;;18.50;63.20;;;;;;5034190;28;20025;-77
2022/01/11 11:44:37;;;;;;;0.75;0.45;;;18.50;63.20;;;;;;5034275;28;20021;-77
2022/01/11 11:47:05;;;;;;;0.68;0.40;;;18.50;63.20;;;;;;5034071;28;20033;-77
2022/01/11 11:49:46;;;;;;;0.70;0.60;;;18.50;63.20;;;;;;5050657;28;20039;-77
2022/01/11 11:52:32;;;;;;;0.50;0.40;;;18.50;63.20;;;;;;5050633;28;20025;-77
2022/01/11 11:55:03;;;;;;;0.60;0.60;;;18.50;63.20;;;;;;5052479;28;20044;-77
2022/01/11 11:57:31;;;;;;;0.68;0.50;;;18.50;63.20;;;;;;5034426;28;20029;-77
2022/01/11 11:59:59;;;;;;;0.93;0.50;;;18.50;63.20;;;;;;5035929;28;20155;-76
2022/01/11 12:02:36;;;;;;;0.60;0.40;;;18.50;63.20;;;;;;5034496;28;20022;-77
2022/01/11 12:05:04;;;;;;;0.50;0.40;;;18.50;63.10;;;;;;5034609;28;20049;-77
2022/01/11 12:07:38;;;;;;;0.60;0.40;;;18.50;63.10;;;;;;5034410;28;20454;-77
2022/01/11 12:10:06;;;;;;;0.65;0.55;;;18.50;63.10;;;;;;5034629;28;20514;-77
2022/01/11 12:12:41;;;;;;;0.52;0.40;;;18.50;63.10;;;;;;5053325;28;20048;-77
2022/01/11 12:15:33;;;;;;;0.80;0.40;;;18.50;63.10;;;;;;5053962;28;20407;-77
2022/01/11 12:17:58;;;;;;;0.50;0.50;;;18.50;62.90;;;;;;5055528;28;20074;-78
2022/01/11 12:20:40;;;;;;;0.60;0.50;;;18.50;63.20;;;;;;5055194;28;20021;-77
2022/01/11 12:23:06;;;;;;;1.08;0.50;;;18.50;63.00;;;;;;5054350;28;20032;-77
2022/01/11 12:25:37;;;;;;;1.15;0.52;;;18.50;63.10;;;;;;5037345;28;20085;-77
2022/01/11 12:28:04;;;;;;;0.70;0.43;;;18.50;63.10;;;;;;5038064;28;20048;-77
2022/01/11 12:30:32;;;;;;;1.00;0.30;;;18.50;63.10;;;;;;5053598;28;20017;-77
2022/01/11 12:33:21;;;;;;;0.75;0.50;;;18.50;63.00;;;;;;5037657;28;20025;-77
2022/01/11 12:36:00;;;;;;;0.50;0.45;;;18.50;62.90;;;;;;5053812;28;20470;-77
2022/01/11 12:38:27;;;;;;;0.40;0.40;;;18.50;63.00;;;;;;5021213;28;20028;-77
2022/01/11 12:40:53;;;;;;;1.08;0.60;;;18.50;63.10;;;;;;5037211;28;20017;-77
2022/01/11 12:43:46;;;;;;;0.45;0.40;;;18.50;63.10;;;;;;5055020;28;20483;-77
2022/01/11 12:46:12;;;;;;;0.60;0.50;;;18.50;62.90;;;;;;5054889;28;20057;-77
2022/01/11 12:48:48;;;;;;;0.40;0.40;;;18.50;63.00;;;;;;5053475;28;20056;-77
2022/01/11 12:51:40;;;;;;;1.00;0.47;;;18.50;63.00;;;;;;5053418;28;20499;-77